MET'MAP v2.0
soon released !

Expected late october,
this new version will be
more efficient, smarter,
and hosted on a brand new
server x3 powerfull...
...and still free !


Not compatible ?
Try the mobile version !

LOG IN : | Subscribe | Disclaimer | Who is Orbifly ? |
ICAO code :

TAF - LFPV Villacoublay Vélizy - 28 Jan 2020 03:07 UTC
Data Sources :     NOAA   


- Airport Elevation : 584 ft
- No reported NOTAMs.


LFPV - Villacoublay Vélizy

Latest METAR recorded : 2020/01/28 01:30 LFPV 280130Z AUTO 22012KT 190V260 9999 BKN011 BKN058 BKN150 07/05 Q0998 TEMPO 26015G30KT 4000 -SHRA BKN014 BKN020TCU
NO TAF


MET'MAP, your aeronautical weather chart ! - Copyright ORBIFLY December 2007

Programming & Development : Alexandra Zaïnal
Co-Developer : Marc-Olivier Méhu
Technical & hardware support : Manuel Goepfert
Concept & Financing : Baudouin d'Aumeries